Explore Kentucky Lake

Lake Conditions
Facebook Twitter Instagram YouTube Contact Us About Us
Switch Mobile/Desktop

Previous Kentucky Lake Levels

Home | Lake Conditions | Previous Kentucky Lake Levels

Kentucky Lake Stages Over Last 48 Hours

The following table shows the previous 48 hours for Kentucky Lake.

Date/Time Lake River Discharge (cfs)
9/22/2019 7 AM CDT 355.40' 301.35' 14,098
9/22/2019 6 AM CDT 355.37' 301.37' 14,064
9/22/2019 5 AM CDT 355.37' 301.35' 14,085
9/22/2019 4 AM CDT 355.37' 301.32' 14,129
9/22/2019 3 AM CDT 355.39' 301.40' 14,140
9/22/2019 2 AM CDT 355.37' 301.50' 14,194
9/22/2019 1 AM CDT 355.37' 301.61' 14,241
9/22/2019 12 AM CDT 355.35' 301.58' 14,288
9/21/2019 11 PM CDT 355.35' 301.54' 14,552
9/21/2019 10 PM CDT 355.33' 301.91' 21,475
9/21/2019 9 PM CDT 355.33' 302.25' 28,131
9/21/2019 8 PM CDT 355.36' 302.27' 28,004
9/21/2019 7 PM CDT 355.41' 302.26' 27,987
9/21/2019 6 PM CDT 355.44' 302.25' 27,937
9/21/2019 5 PM CDT 355.46' 302.21' 27,847
9/21/2019 4 PM CDT 355.45' 302.14' 27,771
9/21/2019 3 PM CDT 355.46' 302.17' 27,840
9/21/2019 2 PM CDT 355.49' 302.17' 27,862
9/21/2019 1 PM CDT 355.51' 302.30' 27,810
9/21/2019 12 PM CDT 355.51' 301.97' 21,000
9/21/2019 11 AM CDT 355.52' 301.65' 14,284
9/21/2019 10 AM CDT 355.53' 301.72' 14,142
9/21/2019 9 AM CDT 355.52' 301.73' 14,139
9/21/2019 8 AM CDT 355.48' 301.77' 14,087
9/21/2019 7 AM CDT 355.48' 301.82' 14,131
9/21/2019 6 AM CDT 355.50' 301.84' 14,170
9/21/2019 5 AM CDT 355.49' 301.81' 14,251
9/21/2019 4 AM CDT 355.47' 301.81' 14,316
9/21/2019 3 AM CDT 355.45' 301.77' 14,334
9/21/2019 2 AM CDT 355.45' 301.81' 14,248
9/21/2019 1 AM CDT 355.43' 301.91' 14,248
9/21/2019 12 AM CDT 355.41' 301.94' 14,295
9/20/2019 11 PM CDT 355.41' 301.87' 14,355
9/20/2019 10 PM CDT 355.42' 301.80' 14,554
9/20/2019 9 PM CDT 355.39' 302.15' 21,470
9/20/2019 8 PM CDT 355.38' 302.50' 28,216
9/20/2019 7 PM CDT 355.40' 302.49' 28,126
9/20/2019 6 PM CDT 355.42' 302.62' 28,176
9/20/2019 5 PM CDT 355.43' 302.51' 28,192
9/20/2019 4 PM CDT 355.41' 302.40' 28,113
9/20/2019 3 PM CDT 355.42' 302.35' 28,067
9/20/2019 2 PM CDT 355.47' 302.24' 28,044
9/20/2019 1 PM CDT 355.52' 302.27' 27,955
9/20/2019 12 PM CDT 355.57' 301.89' 20,975
9/20/2019 11 AM CDT 355.62' 301.47' 14,200
9/20/2019 10 AM CDT 355.63' 301.55' 14,095
9/20/2019 9 AM CDT 355.62' 301.49' 14,077
9/20/2019 8 AM CDT 355.62' 301.42' 13,975
9/20/2019 7 AM CDT 355.57' 301.43' 14,082
9/20/2019 6 AM CDT 355.53' 301.41' 14,184
9/20/2019 5 AM CDT 355.45' 301.49' 14,250
9/20/2019 4 AM CDT 355.43' 301.56' 14,216
9/20/2019 3 AM CDT 355.44' 301.48' 14,207
9/20/2019 2 AM CDT 355.46' 301.35' 14,154
9/20/2019 1 AM CDT 355.49' 301.44' 14,393

Shy Doe
Photo by J. Kent Harmon

The dense forests in Land Between The Lakes make the perfect hiding place for deer and other native species. You never know who might be peeking at you from the treeline.